createdAt,value
2019-02-11T00:01:16.632Z,6.43
2019-02-11T00:03:59.435Z,10.93
2019-02-11T00:06:22.728Z,16.40
2019-02-11T00:08:51.231Z,1.57
2019-02-11T00:11:19.649Z,12.13
2019-02-11T00:13:48.107Z,2.63
2019-02-11T00:16:16.532Z,1.47
2019-02-11T00:18:44.963Z,5.23
2019-02-11T00:21:13.395Z,4.40
2019-02-11T00:23:41.833Z,3.07
2019-02-11T00:26:10.253Z,6.93
2019-02-11T00:28:38.694Z,4.23
2019-02-11T00:31:07.111Z,4.33
2019-02-11T00:33:35.576Z,15.77
2019-02-11T00:36:04.007Z,1.50
2019-02-11T00:38:33.024Z,6.07
2019-02-11T00:41:01.444Z,4.70
2019-02-11T00:43:29.914Z,7.60
2019-02-11T00:45:58.411Z,16.10
2019-02-11T00:48:38.562Z,2.67
2019-02-11T00:51:06.985Z,3.00
2019-02-11T00:53:35.440Z,3.73
2019-02-11T00:56:03.923Z,3.60
2019-02-11T00:58:32.437Z,5.00
2019-02-11T01:01:00.856Z,11.80
2019-02-11T01:03:29.300Z,4.40
2019-02-11T01:05:57.790Z,3.70
2019-02-11T01:08:26.231Z,1.40
2019-02-11T01:10:54.657Z,6.33
2019-02-11T01:13:27.777Z,12.60
2019-02-11T01:15:53.255Z,5.37
2019-02-11T01:18:21.775Z,4.30
2019-02-11T01:20:50.219Z,23.50
2019-02-11T01:23:18.632Z,4.10
2019-02-11T01:25:47.066Z,3.40
2019-02-11T01:28:15.504Z,2.03
2019-02-11T01:31:03.276Z,5.00
2019-02-11T01:33:31.727Z,3.63
2019-02-11T01:36:00.212Z,5.00
2019-02-11T01:38:28.655Z,3.40
2019-02-11T01:40:57.071Z,8.03
2019-02-11T01:43:25.500Z,21.23
2019-02-11T01:45:53.972Z,8.40
2019-02-11T01:48:22.379Z,3.43
2019-02-11T01:50:50.827Z,10.40
2019-02-11T01:53:19.264Z,5.80
2019-02-11T01:55:47.707Z,1.13
2019-02-11T01:58:16.143Z,8.40
2019-02-11T02:00:44.589Z,7.10
2019-02-11T02:03:55.523Z,4.63
2019-02-11T02:06:23.963Z,3.67
2019-02-11T02:09:11.742Z,11.40
2019-02-11T02:11:40.167Z,5.70
2019-02-11T02:14:08.611Z,7.47
2019-02-11T02:16:37.032Z,4.90
2019-02-11T02:19:05.575Z,4.10
2019-02-11T02:21:33.992Z,5.80
2019-02-11T02:24:02.440Z,8.80
2019-02-11T02:26:30.884Z,6.07
2019-02-11T02:28:59.304Z,10.93
2019-02-11T02:31:27.754Z,9.53
2019-02-11T02:33:56.329Z,3.63
2019-02-11T02:36:24.740Z,4.33
2019-02-11T02:38:53.186Z,3.27
2019-02-11T02:41:21.603Z,6.00
2019-02-11T02:43:55.693Z,8.03
2019-02-11T02:46:20.343Z,4.57
2019-02-11T02:48:48.760Z,3.00
2019-02-11T02:51:17.188Z,6.57
2019-02-11T02:53:45.627Z,5.13
2019-02-11T02:56:14.035Z,7.90
2019-02-11T02:58:42.520Z,2.13
2019-02-11T03:01:10.959Z,1.67
2019-02-11T03:03:39.453Z,13.50
2019-02-11T03:06:07.984Z,6.33
2019-02-11T03:08:36.458Z,2.13
2019-02-11T03:11:05.149Z,2.97
2019-02-11T03:13:33.571Z,4.63
2019-02-11T03:16:02.737Z,3.70
2019-02-11T03:18:31.602Z,6.53
2019-02-11T03:21:00.039Z,4.73
2019-02-11T03:23:28.563Z,0.70
2019-02-11T03:25:56.998Z,1.80
2019-02-11T03:28:25.567Z,0.60
2019-02-11T03:30:53.996Z,0.93
2019-02-11T03:33:22.457Z,1.17
2019-02-11T03:35:51.040Z,1.30
2019-02-11T03:38:38.795Z,2.50
2019-02-11T03:41:07.236Z,3.23
2019-02-11T03:43:35.652Z,1.87
2019-02-11T03:46:04.166Z,4.20
2019-02-11T03:48:32.642Z,10.03
2019-02-11T03:51:01.152Z,5.87
2019-02-11T03:53:29.597Z,2.20
2019-02-11T03:55:58.026Z,0.50
2019-02-11T03:58:26.482Z,6.43
2019-02-11T04:00:54.989Z,0.70
2019-02-11T04:03:23.470Z,1.00
2019-02-11T04:05:52.013Z,2.00
2019-02-11T04:08:20.435Z,4.83
2019-02-11T04:10:49.008Z,9.77
2019-02-11T04:13:17.448Z,6.00
2019-02-11T04:15:45.929Z,4.33
2019-02-11T04:18:14.380Z,10.13
2019-02-11T04:20:42.813Z,6.00
2019-02-11T04:23:11.265Z,2.60
2019-02-11T04:25:39.685Z,3.63
2019-02-11T04:28:08.108Z,5.53
2019-02-11T04:30:36.555Z,4.03
2019-02-11T04:33:04.976Z,5.03
2019-02-11T04:35:33.455Z,16.60
2019-02-11T04:38:21.241Z,4.13
2019-02-11T04:40:49.678Z,7.30
2019-02-11T04:43:18.096Z,5.07
2019-02-11T04:45:46.549Z,16.43
2019-02-11T04:48:14.971Z,4.40
2019-02-11T04:50:43.482Z,4.30
2019-02-11T04:53:11.905Z,17.47
2019-02-11T04:55:40.567Z,8.80
2019-02-11T04:58:08.989Z,9.27
2019-02-11T05:00:37.408Z,5.37
2019-02-11T05:03:06.031Z,15.77
2019-02-11T05:05:34.602Z,2.63
2019-02-11T05:08:03.052Z,9.57
2019-02-11T05:10:31.475Z,7.80
2019-02-11T05:12:59.970Z,11.50
2019-02-11T05:15:28.435Z,11.40
2019-02-11T05:17:56.879Z,7.50
2019-02-11T05:20:25.291Z,23.93
2019-02-11T05:22:53.739Z,16.33
2019-02-11T05:25:22.160Z,17.43
2019-02-11T05:27:50.608Z,8.33
2019-02-11T05:30:19.027Z,7.97
2019-02-11T05:32:47.463Z,15.63
2019-02-11T05:35:16.042Z,11.50
2019-02-11T05:37:44.493Z,11.67
2019-02-11T05:40:13.020Z,8.13
2019-02-11T05:42:41.551Z,20.20
2019-02-11T05:45:10.094Z,4.93
2019-02-11T05:47:38.578Z,6.10
2019-02-11T05:50:10.243Z,5.03
2019-02-11T05:52:38.675Z,13.60
2019-02-11T05:55:07.923Z,6.10
2019-02-11T05:57:36.360Z,13.87
2019-02-11T06:00:08.346Z,5.93
2019-02-11T06:02:37.176Z,20.00
2019-02-11T06:05:07.436Z,13.33
2019-02-11T06:07:35.890Z,9.00
2019-02-11T06:10:07.253Z,13.43
2019-02-11T06:12:35.691Z,10.90
2019-02-11T06:15:06.071Z,25.47
2019-02-11T06:17:34.528Z,16.17
2019-02-11T06:20:02.940Z,9.50
2019-02-11T06:22:31.440Z,12.40
2019-02-11T06:24:59.880Z,8.90
2019-02-11T06:27:28.371Z,4.60
2019-02-11T06:29:56.828Z,63.87
2019-02-11T06:32:25.443Z,14.07
2019-02-11T06:34:53.962Z,4.23
2019-02-11T06:37:41.743Z,16.20
2019-02-11T06:40:10.902Z,14.17
2019-02-11T06:42:39.361Z,7.20
2019-02-11T06:45:13.267Z,12.90
2019-02-11T06:47:40.075Z,8.33
2019-02-11T06:50:14.213Z,12.03
2019-02-11T06:52:42.668Z,6.63
2019-02-11T06:55:12.171Z,15.67
2019-02-11T06:57:59.962Z,8.70
2019-02-11T07:00:28.381Z,19.17
2019-02-11T07:02:56.823Z,5.20
2019-02-11T07:05:25.259Z,5.50
2019-02-11T07:07:53.715Z,28.03
2019-02-11T07:10:22.159Z,9.63
2019-02-11T07:12:50.598Z,14.20
2019-02-11T07:15:22.132Z,11.10
2019-02-11T07:17:49.186Z,8.23
2019-02-11T07:20:18.599Z,14.60
2019-02-11T07:22:47.048Z,11.53
2019-02-11T07:25:16.635Z,7.40
2019-02-11T07:27:45.411Z,13.33
2019-02-11T07:30:14.435Z,5.57
2019-02-11T07:32:42.880Z,12.63
2019-02-11T07:35:11.407Z,18.10
2019-02-11T07:37:39.861Z,11.70
2019-02-11T07:43:24.967Z,35.43
2019-02-11T07:45:55.027Z,21.87
2019-02-11T07:48:23.545Z,8.07
2019-02-11T07:50:52.059Z,6.60
2019-02-11T07:53:20.508Z,20.60
2019-02-11T07:55:48.989Z,18.30
2019-02-11T07:58:17.494Z,13.53
2019-02-11T08:00:46.079Z,5.23
2019-02-11T08:03:14.527Z,4.30
2019-02-11T08:05:42.986Z,5.70
2019-02-11T08:08:11.475Z,15.23
2019-02-11T08:10:39.916Z,14.00
2019-02-11T08:13:08.360Z,3.37
2019-02-11T08:15:38.601Z,13.90
2019-02-11T08:18:06.964Z,3.80
2019-02-11T08:20:35.402Z,4.83
2019-02-11T08:23:11.843Z,4.20
2019-02-11T08:25:33.963Z,13.33
2019-02-11T08:28:02.400Z,9.70
2019-02-11T08:30:30.936Z,2.80
2019-02-11T08:32:59.354Z,26.13
2019-02-11T08:35:28.997Z,18.27
2019-02-11T08:37:57.667Z,8.77
2019-02-11T08:40:26.251Z,14.93
2019-02-11T08:42:54.775Z,7.77
2019-02-11T08:45:23.239Z,9.40
2019-02-11T08:47:51.734Z,4.50
2019-02-11T08:50:20.156Z,10.87
2019-02-11T08:52:48.679Z,13.10
2019-02-11T08:55:17.099Z,10.13
2019-02-11T08:57:45.553Z,22.83
2019-02-11T09:00:15.061Z,9.83
2019-02-11T09:02:43.939Z,5.20
2019-02-11T09:05:12.417Z,6.80
2019-02-11T09:07:40.921Z,11.97
2019-02-11T09:10:11.479Z,10.13
2019-02-11T09:12:39.930Z,13.70
2019-02-11T09:15:11.280Z,16.07
2019-02-11T09:17:39.690Z,19.67
2019-02-11T09:20:10.549Z,14.70
2019-02-11T09:22:39.242Z,10.50
2019-02-11T09:25:10.136Z,22.57
2019-02-11T09:27:38.556Z,4.37
2019-02-11T09:30:10.252Z,8.27
2019-02-11T09:32:38.667Z,7.80
2019-02-11T09:35:07.382Z,12.47
2019-02-11T09:37:36.749Z,19.87
2019-02-11T09:40:11.876Z,17.37
2019-02-11T09:42:40.285Z,6.87
2019-02-11T09:45:11.930Z,7.13
2019-02-11T09:47:59.693Z,16.43
2019-02-11T09:50:37.368Z,2.47
2019-02-11T09:53:25.170Z,32.97
2019-02-11T09:55:53.651Z,25.50
2019-02-11T09:58:22.104Z,9.13
2019-02-11T10:00:50.527Z,19.30
2019-02-11T10:03:18.950Z,12.93
2019-02-11T10:05:47.385Z,17.03
2019-02-11T10:08:15.906Z,21.03
2019-02-11T10:10:44.363Z,12.13
2019-02-11T10:13:12.781Z,8.10
2019-02-11T10:15:41.201Z,17.27
2019-02-11T10:18:09.653Z,13.07
2019-02-11T10:20:38.093Z,14.63
2019-02-11T10:23:06.536Z,10.80
2019-02-11T10:25:34.977Z,4.90
2019-02-11T10:28:11.304Z,15.40
2019-02-11T10:30:39.828Z,13.80
2019-02-11T10:33:08.524Z,6.20
2019-02-11T10:35:42.240Z,6.70
2019-02-11T10:38:07.290Z,17.00
2019-02-11T10:40:35.800Z,5.00
2019-02-11T10:43:04.226Z,10.50
2019-02-11T10:45:36.600Z,14.37
2019-02-11T10:48:02.896Z,10.47
2019-02-11T10:50:31.347Z,10.20
2019-02-11T10:52:59.819Z,13.07
2019-02-11T10:55:28.228Z,8.13
2019-02-11T10:57:56.683Z,3.83
2019-02-11T11:00:26.024Z,4.97
2019-02-11T11:02:54.458Z,15.83
2019-02-11T11:05:42.239Z,10.17
2019-02-11T11:08:10.741Z,13.17
2019-02-11T11:10:40.040Z,21.03
2019-02-11T11:13:08.523Z,10.70
2019-02-11T11:15:37.003Z,4.50
2019-02-11T11:18:26.776Z,18.13
2019-02-11T11:20:55.193Z,19.00
2019-02-11T11:23:23.679Z,24.30
2019-02-11T11:25:52.123Z,6.20
2019-02-11T11:28:20.651Z,20.00
2019-02-11T11:30:49.067Z,28.07
2019-02-11T11:33:17.687Z,7.60
2019-02-11T11:35:46.155Z,17.00
2019-02-11T11:38:14.625Z,14.33
2019-02-11T11:40:43.039Z,17.47
2019-02-11T11:43:11.500Z,21.43
2019-02-11T11:45:39.995Z,18.07
2019-02-11T11:48:08.442Z,16.70
2019-02-11T11:50:36.867Z,14.33
2019-02-11T11:53:05.319Z,17.43
2019-02-11T11:55:33.743Z,15.07
2019-02-11T11:58:02.208Z,17.97
2019-02-11T12:00:33.901Z,10.40
2019-02-11T12:03:21.773Z,15.43
2019-02-11T12:05:50.292Z,11.60
2019-02-11T12:08:19.433Z,12.37
2019-02-11T12:10:47.898Z,2.83
2019-02-11T12:13:22.651Z,10.97
2019-02-11T12:15:47.269Z,11.27
2019-02-11T12:18:15.779Z,3.83
2019-02-11T12:20:44.295Z,7.37
2019-02-11T12:23:12.826Z,2.97
2019-02-11T12:25:42.360Z,12.10
2019-02-11T12:28:10.881Z,3.53
2019-02-11T12:30:39.383Z,11.20
2019-02-11T12:33:07.905Z,7.20
2019-02-11T12:35:36.356Z,12.70
2019-02-11T12:38:04.780Z,25.57
2019-02-11T12:40:33.294Z,10.17
2019-02-11T12:43:01.861Z,20.13
2019-02-11T12:45:49.698Z,17.73
2019-02-11T12:48:37.472Z,6.17
2019-02-11T12:51:05.989Z,19.93
2019-02-11T12:53:34.507Z,11.87
2019-02-11T12:56:03.285Z,15.60
2019-02-11T12:58:31.853Z,17.17
2019-02-11T13:01:00.273Z,12.23
2019-02-11T13:03:28.693Z,24.33
2019-02-11T13:05:57.220Z,4.10
2019-02-11T13:08:25.724Z,10.97
2019-02-11T13:10:54.145Z,6.53
2019-02-11T13:13:22.595Z,8.80
2019-02-11T13:16:00.942Z,10.47
2019-02-11T13:18:21.368Z,4.90
2019-02-11T13:20:49.986Z,11.30
2019-02-11T13:23:18.473Z,8.70
2019-02-11T13:25:46.975Z,5.50
2019-02-11T13:28:15.433Z,8.23
2019-02-11T13:30:43.932Z,11.50
2019-02-11T13:33:12.337Z,9.03
2019-02-11T13:35:40.868Z,11.40
2019-02-11T13:38:09.393Z,12.80
2019-02-11T13:40:37.951Z,22.83
2019-02-11T13:43:06.605Z,7.77
2019-02-11T13:45:35.053Z,22.83
2019-02-11T13:48:03.625Z,7.37
2019-02-11T13:50:32.111Z,6.80
2019-02-11T13:53:00.899Z,9.43
2019-02-11T13:55:48.730Z,3.70
2019-02-11T13:58:17.165Z,5.13
2019-02-11T14:00:49.645Z,5.70
2019-02-11T14:03:20.027Z,11.63
2019-02-11T14:05:47.124Z,10.80
2019-02-11T14:08:15.605Z,2.53
2019-02-11T14:10:44.377Z,8.13
2019-02-11T14:13:13.430Z,6.23
2019-02-11T14:15:41.913Z,7.10
2019-02-11T14:18:14.282Z,5.97
2019-02-11T14:20:41.712Z,10.70
2019-02-11T14:23:10.439Z,11.03
2019-02-11T14:25:45.074Z,8.60
2019-02-11T14:28:09.200Z,10.47
2019-02-11T14:30:37.660Z,14.10
2019-02-11T14:33:10.521Z,13.87
2019-02-11T14:35:39.041Z,10.13
2019-02-11T14:38:07.465Z,10.83
2019-02-11T14:40:35.964Z,12.93
2019-02-11T14:43:23.787Z,12.37
2019-02-11T14:45:52.294Z,14.63
2019-02-11T14:48:27.709Z,16.90
2019-02-11T14:50:50.941Z,26.83
2019-02-11T14:53:19.367Z,18.80
2019-02-11T14:55:47.811Z,24.73
2019-02-11T14:58:16.241Z,23.17
2019-02-11T15:00:44.703Z,31.03
2019-02-11T15:03:13.158Z,33.90
2019-02-11T15:05:41.881Z,30.63
2019-02-11T15:08:10.307Z,34.47
2019-02-11T15:10:38.754Z,35.73
2019-02-11T15:13:11.435Z,27.17
2019-02-11T15:15:39.885Z,32.73
2019-02-11T15:18:34.099Z,36.90
2019-02-11T15:20:57.827Z,42.90
2019-02-11T15:23:26.275Z,34.53
2019-02-11T15:25:54.721Z,34.40
2019-02-11T15:31:18.264Z,30.50
2019-02-11T15:33:46.679Z,29.83
2019-02-11T15:36:15.136Z,31.77
2019-02-11T15:38:43.578Z,27.27
2019-02-11T15:41:12.029Z,33.83
2019-02-11T15:43:40.526Z,23.93
2019-02-11T15:49:24.031Z,44.03
2019-02-11T15:51:52.568Z,30.73
2019-02-11T15:54:21.093Z,32.23
2019-02-11T15:56:49.550Z,26.90
2019-02-11T15:59:18.065Z,27.07
2019-02-11T16:01:46.571Z,18.90
2019-02-11T16:04:14.998Z,18.90
2019-02-11T16:06:43.467Z,28.73
2019-02-11T16:09:12.048Z,21.93
2019-02-11T16:11:40.571Z,14.83
2019-02-11T16:14:09.005Z,26.63
2019-02-11T16:16:37.435Z,21.20
2019-02-11T16:19:05.917Z,20.23
2019-02-11T16:21:34.461Z,26.30
2019-02-11T16:24:02.907Z,34.83
2019-02-11T16:26:31.337Z,14.70
2019-02-11T16:28:59.859Z,23.47
2019-02-11T16:31:28.300Z,23.40
2019-02-11T16:33:56.719Z,23.97
2019-02-11T16:36:25.159Z,21.90
2019-02-11T16:38:53.582Z,18.37
2019-02-11T16:41:22.019Z,24.10
2019-02-11T16:43:50.464Z,21.03
2019-02-11T16:46:19.172Z,24.63
2019-02-11T16:48:47.926Z,15.43
2019-02-11T16:51:16.437Z,19.93
2019-02-11T16:53:44.842Z,18.10
2019-02-11T16:56:13.259Z,27.63
2019-02-11T16:58:41.703Z,18.03
2019-02-11T17:01:22.375Z,23.57
2019-02-11T17:03:50.794Z,15.00
2019-02-11T17:06:19.248Z,14.83
2019-02-11T17:08:47.664Z,22.60
2019-02-11T17:11:16.147Z,29.77
2019-02-11T17:13:44.571Z,28.33
2019-02-11T17:16:13.023Z,19.63
2019-02-11T17:18:41.471Z,25.37
2019-02-11T17:21:09.924Z,27.67
2019-02-11T17:23:38.387Z,28.65
2019-02-11T17:26:26.172Z,29.73
2019-02-11T17:28:54.612Z,27.17
2019-02-11T17:31:42.379Z,21.33
2019-02-11T17:34:10.816Z,22.73
2019-02-11T17:36:58.584Z,16.53
2019-02-11T17:39:27.039Z,29.87
2019-02-11T17:42:14.813Z,27.10
2019-02-11T17:44:43.247Z,25.87
2019-02-11T17:47:31.013Z,36.67
2019-02-11T17:49:59.465Z,19.10
2019-02-11T17:52:27.979Z,28.05
2019-02-11T17:54:56.426Z,23.73
2019-02-11T17:57:24.866Z,30.33
2019-02-11T17:59:53.283Z,35.07
2019-02-11T18:02:21.746Z,29.27
2019-02-11T18:04:50.204Z,17.40
2019-02-11T18:07:18.686Z,28.90
2019-02-11T18:09:47.122Z,32.83
2019-02-11T18:12:15.571Z,38.53
2019-02-11T18:14:44.076Z,19.70
2019-02-11T18:17:12.524Z,29.47
2019-02-11T18:19:40.974Z,24.80
2019-02-11T18:22:09.647Z,25.23
2019-02-11T18:24:38.068Z,20.90
2019-02-11T18:27:06.507Z,17.30
2019-02-11T18:29:34.923Z,30.07
2019-02-11T18:32:03.411Z,23.67
2019-02-11T18:34:31.873Z,17.83
2019-02-11T18:37:00.344Z,23.50
2019-02-11T18:39:28.777Z,22.30
2019-02-11T18:41:57.226Z,30.80
2019-02-11T18:44:25.724Z,48.47
2019-02-11T18:46:54.171Z,39.13
2019-02-11T18:49:22.595Z,21.80
2019-02-11T18:51:51.072Z,22.20
2019-02-11T18:54:19.492Z,28.13
2019-02-11T18:56:47.935Z,29.70
2019-02-11T18:59:24.232Z,25.23
2019-02-11T19:01:46.528Z,18.20
2019-02-11T19:04:15.731Z,24.23
2019-02-11T19:06:44.299Z,24.07
2019-02-11T19:09:14.546Z,22.90
2019-02-11T19:11:43.004Z,28.10
2019-02-11T19:14:11.521Z,22.63
2019-02-11T19:16:39.971Z,24.43
2019-02-11T19:19:08.387Z,20.97
2019-02-11T19:21:36.857Z,29.77
2019-02-11T19:24:05.277Z,31.23
2019-02-11T19:26:33.725Z,21.50
2019-02-11T19:29:06.499Z,22.53
2019-02-11T19:31:34.944Z,18.60
2019-02-11T19:34:03.355Z,24.93
2019-02-11T19:36:31.777Z,34.70
2019-02-11T19:39:00.231Z,29.20
2019-02-11T19:41:28.685Z,23.40
2019-02-11T19:43:57.198Z,26.03
2019-02-11T19:46:44.998Z,24.60
2019-02-11T19:49:13.408Z,16.10
2019-02-11T19:51:41.837Z,47.30
2019-02-11T19:54:10.279Z,17.37
2019-02-11T19:56:38.728Z,24.37
2019-02-11T19:59:07.167Z,20.77
2019-02-11T20:01:35.626Z,21.97
2019-02-11T20:04:23.435Z,33.48
2019-02-11T20:06:51.846Z,25.23
2019-02-11T20:22:04.683Z,30.20
2019-02-11T20:24:33.135Z,37.17
2019-02-11T20:27:01.575Z,27.90
2019-02-11T20:29:30.091Z,30.27
2019-02-11T20:31:58.512Z,33.43
2019-02-11T20:34:26.940Z,22.33
2019-02-11T20:36:57.123Z,30.57
2019-02-11T20:39:25.682Z,16.63
2019-02-11T20:41:54.122Z,17.73
2019-02-11T20:44:22.526Z,25.07
2019-02-11T20:46:51.109Z,19.13
2019-02-11T20:49:19.610Z,21.93
2019-02-11T20:51:48.062Z,23.43
2019-02-11T20:54:16.480Z,22.03
2019-02-11T20:56:44.924Z,31.63
2019-02-11T20:59:13.343Z,32.17
2019-02-11T21:01:42.210Z,33.97
2019-02-11T21:04:11.968Z,21.17
2019-02-11T21:06:40.650Z,19.80
2019-02-11T21:09:09.276Z,24.33
2019-02-11T21:11:37.781Z,33.17
2019-02-11T21:14:06.227Z,23.60
2019-02-11T21:16:34.639Z,34.60
2019-02-11T21:19:03.650Z,20.87
2019-02-11T21:21:32.146Z,30.65
2019-02-11T21:24:00.919Z,26.57
2019-02-11T21:26:29.375Z,39.80
2019-02-11T21:28:57.919Z,33.43
2019-02-11T21:31:26.456Z,28.03
2019-02-11T21:33:54.855Z,28.13
2019-02-11T21:36:23.588Z,35.10
2019-02-11T21:38:52.107Z,32.13
2019-02-11T21:41:21.058Z,29.10
2019-02-11T21:43:49.534Z,38.97
2019-02-11T21:46:17.980Z,26.43
2019-02-11T21:48:46.393Z,33.30
2019-02-11T21:51:14.850Z,29.07
2019-02-11T21:53:43.270Z,33.13
2019-02-11T21:56:11.713Z,31.37
2019-02-11T21:58:40.154Z,19.93
2019-02-11T22:01:08.598Z,21.87
2019-02-11T22:03:37.049Z,18.03
2019-02-11T22:06:05.558Z,28.27
2019-02-11T22:08:33.976Z,23.47
2019-02-11T22:11:02.446Z,24.63
2019-02-11T22:13:31.283Z,41.73
2019-02-11T22:16:19.037Z,18.20
2019-02-11T22:18:47.467Z,28.97
2019-02-11T22:21:15.926Z,23.03
2019-02-11T22:23:44.471Z,26.77
2019-02-11T22:26:12.883Z,21.83
2019-02-11T22:28:41.295Z,15.00
2019-02-11T22:31:09.749Z,21.83
2019-02-11T22:33:38.210Z,30.67
2019-02-11T22:36:06.700Z,36.63
2019-02-11T22:38:35.142Z,27.33
2019-02-11T22:41:03.579Z,34.47
2019-02-11T22:43:32.023Z,25.40
2019-02-11T22:46:00.680Z,19.37
2019-02-11T22:48:48.463Z,40.47
2019-02-11T22:51:16.889Z,35.23
2019-02-11T22:53:45.309Z,28.90
2019-02-11T22:56:13.731Z,29.50
2019-02-11T22:58:42.180Z,61.43
2019-02-11T23:01:10.882Z,31.70
2019-02-11T23:03:39.667Z,32.33
2019-02-11T23:06:08.125Z,35.37
2019-02-11T23:08:36.550Z,40.67
2019-02-11T23:11:04.964Z,24.77
2019-02-11T23:13:33.432Z,35.57
2019-02-11T23:16:01.958Z,29.67
2019-02-11T23:18:30.408Z,27.03
2019-02-11T23:20:58.896Z,24.73
2019-02-11T23:23:27.331Z,23.70
2019-02-11T23:25:55.748Z,32.73
2019-02-11T23:28:24.191Z,31.57
2019-02-11T23:30:52.627Z,34.63
2019-02-11T23:33:21.461Z,28.10
2019-02-11T23:35:49.883Z,29.33
2019-02-11T23:38:18.313Z,30.53
2019-02-11T23:40:46.754Z,27.63
2019-02-11T23:43:15.201Z,27.80
2019-02-11T23:45:43.619Z,31.37
2019-02-11T23:48:12.072Z,24.93
2019-02-11T23:50:40.519Z,27.43
2019-02-11T23:53:08.934Z,29.30
2019-02-11T23:55:37.387Z,35.17
2019-02-11T23:58:05.808Z,23.63
